sensor_id;sensor_type;location;lat;lon;timestamp;temperature;humidity
51914;DHT22;37940;53.002;6.930;2023-04-06T00:01:39;1.50;99.90
51914;DHT22;37940;53.002;6.930;2023-04-06T00:04:05;1.50;99.90
51914;DHT22;37940;53.002;6.930;2023-04-06T00:06:32;1.50;99.90
51914;DHT22;37940;53.002;6.930;2023-04-06T00:08:58;1.40;99.90
51914;DHT22;37940;53.002;6.930;2023-04-06T00:11:24;1.40;99.90
51914;DHT22;37940;53.002;6.930;2023-04-06T00:13:50;1.40;99.90
51914;DHT22;37940;53.002;6.930;2023-04-06T00:16:16;1.40;99.90
51914;DHT22;37940;53.002;6.930;2023-04-06T00:18:42;1.40;99.90
51914;DHT22;37940;53.002;6.930;2023-04-06T00:21:08;1.30;99.90
51914;DHT22;37940;53.002;6.930;2023-04-06T00:23:33;1.30;99.90
51914;DHT22;37940;53.002;6.930;2023-04-06T00:25:59;1.20;99.90
51914;DHT22;37940;53.002;6.930;2023-04-06T00:28:25;1.60;99.90
51914;DHT22;37940;53.002;6.930;2023-04-06T00:30:52;1.10;99.90
51914;DHT22;37940;53.002;6.930;2023-04-06T00:33:19;1.10;99.90
51914;DHT22;37940;53.002;6.930;2023-04-06T00:35:45;1.10;99.90
51914;DHT22;37940;53.002;6.930;2023-04-06T00:38:12;1.00;99.90
51914;DHT22;37940;53.002;6.930;2023-04-06T00:40:37;1.10;99.90
51914;DHT22;37940;53.002;6.930;2023-04-06T00:43:05;1.80;99.90
51914;DHT22;37940;53.002;6.930;2023-04-06T00:45:32;0.90;99.90
51914;DHT22;37940;53.002;6.930;2023-04-06T00:47:58;0.90;99.90
51914;DHT22;37940;53.002;6.930;2023-04-06T00:50:24;1.00;99.90
51914;DHT22;37940;53.002;6.930;2023-04-06T00:52:50;0.90;99.90
51914;DHT22;37940;53.002;6.930;2023-04-06T00:55:17;0.90;99.90
51914;DHT22;37940;53.002;6.930;2023-04-06T00:57:43;0.80;99.90
51914;DHT22;37940;53.002;6.930;2023-04-06T01:00:09;0.80;99.90
51914;DHT22;37940;53.002;6.930;2023-04-06T01:02:36;0.70;99.90
51914;DHT22;37940;53.002;6.930;2023-04-06T01:05:02;0.90;99.90
51914;DHT22;37940;53.002;6.930;2023-04-06T01:07:27;0.70;99.90
51914;DHT22;37940;53.002;6.930;2023-04-06T01:09:54;0.70;99.90
51914;DHT22;37940;53.002;6.930;2023-04-06T01:12:20;0.70;99.90
51914;DHT22;37940;53.002;6.930;2023-04-06T01:14:46;0.70;99.90
51914;DHT22;37940;53.002;6.930;2023-04-06T01:17:11;0.70;99.90
51914;DHT22;37940;53.002;6.930;2023-04-06T01:19:37;0.60;99.90
51914;DHT22;37940;53.002;6.930;2023-04-06T01:22:03;0.60;99.90
51914;DHT22;37940;53.002;6.930;2023-04-06T01:24:29;0.70;99.90
51914;DHT22;37940;53.002;6.930;2023-04-06T01:26:55;0.50;99.90
51914;DHT22;37940;53.002;6.930;2023-04-06T01:29:22;0.50;99.90
51914;DHT22;37940;53.002;6.930;2023-04-06T01:31:47;0.60;99.90
51914;DHT22;37940;53.002;6.930;2023-04-06T01:34:13;0.90;99.90
51914;DHT22;37940;53.002;6.930;2023-04-06T01:36:39;0.40;99.90
51914;DHT22;37940;53.002;6.930;2023-04-06T01:39:05;0.40;99.90
51914;DHT22;37940;53.002;6.930;2023-04-06T01:41:30;0.30;99.90
51914;DHT22;37940;53.002;6.930;2023-04-06T01:43:56;0.30;99.90
51914;DHT22;37940;53.002;6.930;2023-04-06T01:46:22;0.60;99.90
51914;DHT22;37940;53.002;6.930;2023-04-06T01:48:48;0.30;99.90
51914;DHT22;37940;53.002;6.930;2023-04-06T01:51:14;0.30;99.90
51914;DHT22;37940;53.002;6.930;2023-04-06T01:53:40;0.30;99.90
51914;DHT22;37940;53.002;6.930;2023-04-06T01:56:06;0.60;99.90
51914;DHT22;37940;53.002;6.930;2023-04-06T01:58:32;0.20;99.90
51914;DHT22;37940;53.002;6.930;2023-04-06T02:00:57;0.20;99.90
51914;DHT22;37940;53.002;6.930;2023-04-06T02:03:23;0.20;99.90
51914;DHT22;37940;53.002;6.930;2023-04-06T02:05:49;0.20;99.90
51914;DHT22;37940;53.002;6.930;2023-04-06T02:08:15;0.20;99.90
51914;DHT22;37940;53.002;6.930;2023-04-06T02:10:41;0.20;99.90
51914;DHT22;37940;53.002;6.930;2023-04-06T02:13:06;0.10;99.90
51914;DHT22;37940;53.002;6.930;2023-04-06T02:15:32;0.60;99.90
51914;DHT22;37940;53.002;6.930;2023-04-06T02:17:58;0.10;99.90
51914;DHT22;37940;53.002;6.930;2023-04-06T02:20:24;0.00;99.90
51914;DHT22;37940;53.002;6.930;2023-04-06T02:22:50;0.10;99.90
51914;DHT22;37940;53.002;6.930;2023-04-06T02:25:16;0.30;99.90
51914;DHT22;37940;53.002;6.930;2023-04-06T02:27:42;0.00;99.90
51914;DHT22;37940;53.002;6.930;2023-04-06T02:30:08;0.00;99.90
51914;DHT22;37940;53.002;6.930;2023-04-06T02:32:34;0.00;99.90
51914;DHT22;37940;53.002;6.930;2023-04-06T02:35:00;0.00;99.90
51914;DHT22;37940;53.002;6.930;2023-04-06T02:37:26;-0.10;99.90
51914;DHT22;37940;53.002;6.930;2023-04-06T02:39:52;-0.10;99.90
51914;DHT22;37940;53.002;6.930;2023-04-06T02:42:18;-0.10;99.90
51914;DHT22;37940;53.002;6.930;2023-04-06T02:44:43;-0.20;99.90
51914;DHT22;37940;53.002;6.930;2023-04-06T02:47:09;0.20;99.90
51914;DHT22;37940;53.002;6.930;2023-04-06T02:49:35;-0.30;99.90
51914;DHT22;37940;53.002;6.930;2023-04-06T02:52:02;-0.40;99.90
51914;DHT22;37940;53.002;6.930;2023-04-06T02:54:28;-0.50;99.90
51914;DHT22;37940;53.002;6.930;2023-04-06T02:56:53;-0.50;99.90
51914;DHT22;37940;53.002;6.930;2023-04-06T02:59:19;-0.40;99.90
51914;DHT22;37940;53.002;6.930;2023-04-06T03:01:45;-0.20;99.90
51914;DHT22;37940;53.002;6.930;2023-04-06T03:04:11;0.30;99.90
51914;DHT22;37940;53.002;6.930;2023-04-06T03:06:37;-0.60;99.90
51914;DHT22;37940;53.002;6.930;2023-04-06T03:09:03;-0.50;99.90
51914;DHT22;37940;53.002;6.930;2023-04-06T03:11:29;0.00;99.90
51914;DHT22;37940;53.002;6.930;2023-04-06T03:13:55;-0.30;99.90
51914;DHT22;37940;53.002;6.930;2023-04-06T03:16:21;-0.70;99.90
51914;DHT22;37940;53.002;6.930;2023-04-06T03:18:46;-0.10;99.90
51914;DHT22;37940;53.002;6.930;2023-04-06T03:21:13;0.20;99.90
51914;DHT22;37940;53.002;6.930;2023-04-06T03:23:41;-0.60;99.90
51914;DHT22;37940;53.002;6.930;2023-04-06T03:26:07;-0.50;99.90
51914;DHT22;37940;53.002;6.930;2023-04-06T03:28:32;-0.50;99.90
51914;DHT22;37940;53.002;6.930;2023-04-06T03:30:58;-0.30;99.90
51914;DHT22;37940;53.002;6.930;2023-04-06T03:33:24;-0.50;99.90
51914;DHT22;37940;53.002;6.930;2023-04-06T03:35:53;0.00;99.90
51914;DHT22;37940;53.002;6.930;2023-04-06T03:38:18;-0.50;99.90
51914;DHT22;37940;53.002;6.930;2023-04-06T03:40:45;-0.20;99.90
51914;DHT22;37940;53.002;6.930;2023-04-06T03:43:11;-0.60;99.90
51914;DHT22;37940;53.002;6.930;2023-04-06T03:45:36;-0.40;99.90
51914;DHT22;37940;53.002;6.930;2023-04-06T03:48:02;-0.60;99.90
51914;DHT22;37940;53.002;6.930;2023-04-06T03:50:28;-0.60;99.90
51914;DHT22;37940;53.002;6.930;2023-04-06T03:52:54;-0.10;99.90
51914;DHT22;37940;53.002;6.930;2023-04-06T03:55:19;0.30;99.90
51914;DHT22;37940;53.002;6.930;2023-04-06T03:57:45;-0.20;99.90
51914;DHT22;37940;53.002;6.930;2023-04-06T04:00:11;-0.70;99.90
51914;DHT22;37940;53.002;6.930;2023-04-06T04:02:37;-0.70;99.90
51914;DHT22;37940;53.002;6.930;2023-04-06T04:05:04;-0.70;99.90
51914;DHT22;37940;53.002;6.930;2023-04-06T04:07:30;-0.70;99.90
51914;DHT22;37940;53.002;6.930;2023-04-06T04:09:56;-0.60;99.90
51914;DHT22;37940;53.002;6.930;2023-04-06T04:12:21;-0.10;99.90
51914;DHT22;37940;53.002;6.930;2023-04-06T04:14:47;-0.60;99.90
51914;DHT22;37940;53.002;6.930;2023-04-06T04:17:13;-0.60;99.90
51914;DHT22;37940;53.002;6.930;2023-04-06T04:19:38;-0.60;99.90
51914;DHT22;37940;53.002;6.930;2023-04-06T04:22:04;-0.60;99.90
51914;DHT22;37940;53.002;6.930;2023-04-06T04:24:31;-0.50;99.90
51914;DHT22;37940;53.002;6.930;2023-04-06T04:26:57;0.20;99.90
51914;DHT22;37940;53.002;6.930;2023-04-06T04:29:22;-0.30;99.90
51914;DHT22;37940;53.002;6.930;2023-04-06T04:31:49;-0.80;99.90
51914;DHT22;37940;53.002;6.930;2023-04-06T04:34:15;0.20;99.90
51914;DHT22;37940;53.002;6.930;2023-04-06T04:36:41;0.10;99.90
51914;DHT22;37940;53.002;6.930;2023-04-06T04:39:07;-0.80;99.90
51914;DHT22;37940;53.002;6.930;2023-04-06T04:41:33;-0.90;99.90
51914;DHT22;37940;53.002;6.930;2023-04-06T04:43:59;-0.20;99.90
51914;DHT22;37940;53.002;6.930;2023-04-06T04:46:25;-0.60;99.90
51914;DHT22;37940;53.002;6.930;2023-04-06T04:48:51;-1.00;99.90
51914;DHT22;37940;53.002;6.930;2023-04-06T04:51:16;-0.50;99.90
51914;DHT22;37940;53.002;6.930;2023-04-06T04:53:42;-0.50;99.90
51914;DHT22;37940;53.002;6.930;2023-04-06T04:56:08;-1.10;99.90
51914;DHT22;37940;53.002;6.930;2023-04-06T04:58:33;-1.10;99.90
51914;DHT22;37940;53.002;6.930;2023-04-06T05:00:59;-0.20;99.90
51914;DHT22;37940;53.002;6.930;2023-04-06T05:03:26;-0.90;99.90
51914;DHT22;37940;53.002;6.930;2023-04-06T05:05:52;-0.50;99.90
51914;DHT22;37940;53.002;6.930;2023-04-06T05:08:18;0.30;99.90
51914;DHT22;37940;53.002;6.930;2023-04-06T05:10:44;0.10;99.90
51914;DHT22;37940;53.002;6.930;2023-04-06T05:13:10;-0.70;99.90
51914;DHT22;37940;53.002;6.930;2023-04-06T05:15:36;-0.70;99.90
51914;DHT22;37940;53.002;6.930;2023-04-06T05:18:09;-0.60;99.90
51914;DHT22;37940;53.002;6.930;2023-04-06T05:20:35;-0.70;99.90
51914;DHT22;37940;53.002;6.930;2023-04-06T05:23:01;-0.60;99.90
51914;DHT22;37940;53.002;6.930;2023-04-06T05:25:27;-0.50;99.90
51914;DHT22;37940;53.002;6.930;2023-04-06T05:27:53;-0.50;99.90
51914;DHT22;37940;53.002;6.930;2023-04-06T05:30:19;-0.40;99.90
51914;DHT22;37940;53.002;6.930;2023-04-06T05:32:46;-0.10;99.90
51914;DHT22;37940;53.002;6.930;2023-04-06T05:35:12;0.50;99.90
51914;DHT22;37940;53.002;6.930;2023-04-06T05:37:38;1.50;99.90
51914;DHT22;37940;53.002;6.930;2023-04-06T05:40:05;2.20;99.90
51914;DHT22;37940;53.002;6.930;2023-04-06T05:42:41;3.10;99.90
51914;DHT22;37940;53.002;6.930;2023-04-06T05:45:09;4.00;99.90
51914;DHT22;37940;53.002;6.930;2023-04-06T05:47:37;4.70;99.90
51914;DHT22;37940;53.002;6.930;2023-04-06T05:50:03;5.30;99.90
51914;DHT22;37940;53.002;6.930;2023-04-06T05:52:28;5.70;99.90
51914;DHT22;37940;53.002;6.930;2023-04-06T05:54:54;6.20;99.90
51914;DHT22;37940;53.002;6.930;2023-04-06T05:57:20;6.70;99.90
51914;DHT22;37940;53.002;6.930;2023-04-06T05:59:46;7.20;99.90
51914;DHT22;37940;53.002;6.930;2023-04-06T06:02:11;7.50;99.90
51914;DHT22;37940;53.002;6.930;2023-04-06T06:04:37;7.50;99.90
51914;DHT22;37940;53.002;6.930;2023-04-06T06:07:03;7.60;99.90
51914;DHT22;37940;53.002;6.930;2023-04-06T06:09:29;7.90;99.90
51914;DHT22;37940;53.002;6.930;2023-04-06T06:11:54;8.30;99.90
51914;DHT22;37940;53.002;6.930;2023-04-06T06:14:20;8.60;99.90
51914;DHT22;37940;53.002;6.930;2023-04-06T06:16:47;9.10;99.90
51914;DHT22;37940;53.002;6.930;2023-04-06T06:19:13;9.20;99.90
51914;DHT22;37940;53.002;6.930;2023-04-06T06:21:39;9.40;99.90
51914;DHT22;37940;53.002;6.930;2023-04-06T06:24:06;9.60;99.90
51914;DHT22;37940;53.002;6.930;2023-04-06T06:26:32;9.50;99.90
51914;DHT22;37940;53.002;6.930;2023-04-06T06:28:58;9.40;99.90
51914;DHT22;37940;53.002;6.930;2023-04-06T06:31:23;9.20;99.90
51914;DHT22;37940;53.002;6.930;2023-04-06T06:33:50;8.60;99.90
51914;DHT22;37940;53.002;6.930;2023-04-06T06:36:19;8.20;99.90
51914;DHT22;37940;53.002;6.930;2023-04-06T06:38:45;8.00;99.90
51914;DHT22;37940;53.002;6.930;2023-04-06T06:41:11;8.00;99.90
51914;DHT22;37940;53.002;6.930;2023-04-06T06:43:37;8.10;99.90
51914;DHT22;37940;53.002;6.930;2023-04-06T06:46:03;8.60;99.90
51914;DHT22;37940;53.002;6.930;2023-04-06T06:48:29;9.30;99.90
51914;DHT22;37940;53.002;6.930;2023-04-06T06:50:55;9.80;99.90
51914;DHT22;37940;53.002;6.930;2023-04-06T06:53:21;10.00;99.10
51914;DHT22;37940;53.002;6.930;2023-04-06T06:55:46;10.30;98.10
51914;DHT22;37940;53.002;6.930;2023-04-06T06:58:14;10.20;98.20
51914;DHT22;37940;53.002;6.930;2023-04-06T07:00:40;9.90;97.30
51914;DHT22;37940;53.002;6.930;2023-04-06T07:03:06;9.80;97.50
51914;DHT22;37940;53.002;6.930;2023-04-06T07:05:32;9.80;98.50
51914;DHT22;37940;53.002;6.930;2023-04-06T07:07:57;9.70;99.10
51914;DHT22;37940;53.002;6.930;2023-04-06T07:10:23;9.60;98.90
51914;DHT22;37940;53.002;6.930;2023-04-06T07:12:49;9.20;98.60
51914;DHT22;37940;53.002;6.930;2023-04-06T07:15:15;8.90;99.60
51914;DHT22;37940;53.002;6.930;2023-04-06T07:17:41;8.70;99.90
51914;DHT22;37940;53.002;6.930;2023-04-06T07:20:07;8.60;99.90
51914;DHT22;37940;53.002;6.930;2023-04-06T07:22:33;8.50;99.90
51914;DHT22;37940;53.002;6.930;2023-04-06T07:24:59;8.40;99.90
51914;DHT22;37940;53.002;6.930;2023-04-06T07:27:24;8.30;99.90
51914;DHT22;37940;53.002;6.930;2023-04-06T07:29:50;8.40;99.90
51914;DHT22;37940;53.002;6.930;2023-04-06T07:32:16;8.70;99.90
51914;DHT22;37940;53.002;6.930;2023-04-06T07:34:42;8.60;99.90
51914;DHT22;37940;53.002;6.930;2023-04-06T07:37:07;8.30;99.90
51914;DHT22;37940;53.002;6.930;2023-04-06T07:39:34;8.40;99.90
51914;DHT22;37940;53.002;6.930;2023-04-06T07:42:00;8.50;99.90
51914;DHT22;37940;53.002;6.930;2023-04-06T07:44:26;8.60;99.90
51914;DHT22;37940;53.002;6.930;2023-04-06T07:46:51;8.60;99.90
51914;DHT22;37940;53.002;6.930;2023-04-06T07:49:17;8.60;99.90
51914;DHT22;37940;53.002;6.930;2023-04-06T07:51:43;8.50;99.90
51914;DHT22;37940;53.002;6.930;2023-04-06T07:54:08;8.40;99.90
51914;DHT22;37940;53.002;6.930;2023-04-06T07:56:34;8.10;99.90
51914;DHT22;37940;53.002;6.930;2023-04-06T07:59:00;7.80;99.90
51914;DHT22;37940;53.002;6.930;2023-04-06T08:01:28;7.70;99.90
51914;DHT22;37940;53.002;6.930;2023-04-06T08:03:56;7.60;99.90
51914;DHT22;37940;53.002;6.930;2023-04-06T08:06:21;7.50;99.90
51914;DHT22;37940;53.002;6.930;2023-04-06T08:08:47;7.50;99.90
51914;DHT22;37940;53.002;6.930;2023-04-06T08:11:13;7.40;99.90
51914;DHT22;37940;53.002;6.930;2023-04-06T08:13:39;7.40;99.90
51914;DHT22;37940;53.002;6.930;2023-04-06T08:16:05;7.50;99.90
51914;DHT22;37940;53.002;6.930;2023-04-06T08:18:30;7.40;99.90
51914;DHT22;37940;53.002;6.930;2023-04-06T08:20:56;7.40;99.90
51914;DHT22;37940;53.002;6.930;2023-04-06T08:23:22;7.50;99.90
51914;DHT22;37940;53.002;6.930;2023-04-06T08:25:48;7.50;99.90
51914;DHT22;37940;53.002;6.930;2023-04-06T08:28:14;7.60;99.90
51914;DHT22;37940;53.002;6.930;2023-04-06T08:30:43;7.70;99.90
51914;DHT22;37940;53.002;6.930;2023-04-06T08:33:09;7.80;99.90
51914;DHT22;37940;53.002;6.930;2023-04-06T08:35:35;7.90;99.90
51914;DHT22;37940;53.002;6.930;2023-04-06T08:38:01;8.00;99.90
51914;DHT22;37940;53.002;6.930;2023-04-06T08:40:27;8.10;99.90
51914;DHT22;37940;53.002;6.930;2023-04-06T08:42:55;8.30;99.90
51914;DHT22;37940;53.002;6.930;2023-04-06T08:45:22;8.40;99.90
51914;DHT22;37940;53.002;6.930;2023-04-06T08:47:51;8.50;99.90
51914;DHT22;37940;53.002;6.930;2023-04-06T08:50:18;8.70;99.90
51914;DHT22;37940;53.002;6.930;2023-04-06T08:52:47;8.80;99.90
51914;DHT22;37940;53.002;6.930;2023-04-06T08:55:13;8.90;99.90
51914;DHT22;37940;53.002;6.930;2023-04-06T08:57:39;8.90;99.90
51914;DHT22;37940;53.002;6.930;2023-04-06T09:00:09;9.00;99.90
51914;DHT22;37940;53.002;6.930;2023-04-06T09:02:39;9.20;99.90
51914;DHT22;37940;53.002;6.930;2023-04-06T09:05:07;9.30;99.90
51914;DHT22;37940;53.002;6.930;2023-04-06T09:07:33;9.40;99.90
51914;DHT22;37940;53.002;6.930;2023-04-06T09:09:58;9.40;99.90
51914;DHT22;37940;53.002;6.930;2023-04-06T09:12:30;9.50;99.90
51914;DHT22;37940;53.002;6.930;2023-04-06T09:14:57;9.60;99.90
51914;DHT22;37940;53.002;6.930;2023-04-06T09:17:24;9.70;99.90
51914;DHT22;37940;53.002;6.930;2023-04-06T09:19:51;9.80;99.90
51914;DHT22;37940;53.002;6.930;2023-04-06T09:22:18;9.90;99.90
51914;DHT22;37940;53.002;6.930;2023-04-06T09:24:52;10.00;99.90
51914;DHT22;37940;53.002;6.930;2023-04-06T09:27:29;10.30;99.90
51914;DHT22;37940;53.002;6.930;2023-04-06T09:32:29;10.60;99.70
51914;DHT22;37940;53.002;6.930;2023-04-06T09:35:05;10.70;99.60
51914;DHT22;37940;53.002;6.930;2023-04-06T09:37:32;10.90;97.10
51914;DHT22;37940;53.002;6.930;2023-04-06T09:40:05;11.00;98.30
51914;DHT22;37940;53.002;6.930;2023-04-06T09:42:32;11.10;97.20
51914;DHT22;37940;53.002;6.930;2023-04-06T09:44:58;11.30;96.50
51914;DHT22;37940;53.002;6.930;2023-04-06T09:47:24;11.40;94.00
51914;DHT22;37940;53.002;6.930;2023-04-06T09:49:56;11.50;96.50
51914;DHT22;37940;53.002;6.930;2023-04-06T09:52:26;11.70;96.70
51914;DHT22;37940;53.002;6.930;2023-04-06T09:54:55;11.70;94.30
51914;DHT22;37940;53.002;6.930;2023-04-06T10:00:17;11.90;94.50
51914;DHT22;37940;53.002;6.930;2023-04-06T10:03:15;12.20;95.00
51914;DHT22;37940;53.002;6.930;2023-04-06T10:05:56;12.50;95.90
51914;DHT22;37940;53.002;6.930;2023-04-06T10:08:27;12.40;92.60
51914;DHT22;37940;53.002;6.930;2023-04-06T10:10:55;12.40;93.60
51914;DHT22;37940;53.002;6.930;2023-04-06T10:13:21;12.20;93.10
51914;DHT22;37940;53.002;6.930;2023-04-06T10:15:49;12.20;94.00
51914;DHT22;37940;53.002;6.930;2023-04-06T10:18:16;12.20;94.30
51914;DHT22;37940;53.002;6.930;2023-04-06T10:20:43;12.10;94.80
51914;DHT22;37940;53.002;6.930;2023-04-06T10:23:26;12.20;95.70
51914;DHT22;37940;53.002;6.930;2023-04-06T10:25:56;12.30;94.10
51914;DHT22;37940;53.002;6.930;2023-04-06T10:28:23;12.40;94.50
51914;DHT22;37940;53.002;6.930;2023-04-06T10:30:49;12.40;95.90
51914;DHT22;37940;53.002;6.930;2023-04-06T10:33:19;12.50;95.30
51914;DHT22;37940;53.002;6.930;2023-04-06T10:35:48;12.60;94.50
51914;DHT22;37940;53.002;6.930;2023-04-06T10:38:14;12.60;93.00
51914;DHT22;37940;53.002;6.930;2023-04-06T10:40:41;12.70;94.30
51914;DHT22;37940;53.002;6.930;2023-04-06T10:43:13;12.90;94.60
51914;DHT22;37940;53.002;6.930;2023-04-06T10:45:40;13.20;95.30
51914;DHT22;37940;53.002;6.930;2023-04-06T10:48:13;13.30;93.00
51914;DHT22;37940;53.002;6.930;2023-04-06T10:50:42;13.40;90.90
51914;DHT22;37940;53.002;6.930;2023-04-06T10:53:08;13.50;90.10
51914;DHT22;37940;53.002;6.930;2023-04-06T10:55:34;13.50;91.30
51914;DHT22;37940;53.002;6.930;2023-04-06T10:58:06;13.60;91.80
51914;DHT22;37940;53.002;6.930;2023-04-06T11:00:32;13.70;91.60
51914;DHT22;37940;53.002;6.930;2023-04-06T11:03:01;13.90;91.30
51914;DHT22;37940;53.002;6.930;2023-04-06T11:05:27;14.00;91.00
51914;DHT22;37940;53.002;6.930;2023-04-06T11:07:53;14.00;91.60
51914;DHT22;37940;53.002;6.930;2023-04-06T11:10:22;14.10;90.80
51914;DHT22;37940;53.002;6.930;2023-04-06T11:12:56;14.10;91.50
51914;DHT22;37940;53.002;6.930;2023-04-06T11:15:22;14.00;89.50
51914;DHT22;37940;53.002;6.930;2023-04-06T11:17:48;13.90;91.20
51914;DHT22;37940;53.002;6.930;2023-04-06T11:20:15;13.90;90.60
51914;DHT22;37940;53.002;6.930;2023-04-06T11:22:53;13.90;89.30
51914;DHT22;37940;53.002;6.930;2023-04-06T11:25:19;14.00;90.90
51914;DHT22;37940;53.002;6.930;2023-04-06T11:27:46;14.00;90.50
51914;DHT22;37940;53.002;6.930;2023-04-06T11:30:13;14.20;89.80
51914;DHT22;37940;53.002;6.930;2023-04-06T11:32:44;14.30;90.30
51914;DHT22;37940;53.002;6.930;2023-04-06T11:35:23;14.30;86.40
51914;DHT22;37940;53.002;6.930;2023-04-06T11:37:52;14.30;88.00
51914;DHT22;37940;53.002;6.930;2023-04-06T11:40:24;14.40;88.80
51914;DHT22;37940;53.002;6.930;2023-04-06T11:42:54;14.50;88.40
51914;DHT22;37940;53.002;6.930;2023-04-06T11:45:21;14.50;88.20
51914;DHT22;37940;53.002;6.930;2023-04-06T11:47:55;14.60;87.20
51914;DHT22;37940;53.002;6.930;2023-04-06T11:50:23;14.60;90.20
51914;DHT22;37940;53.002;6.930;2023-04-06T11:52:58;14.80;87.80
51914;DHT22;37940;53.002;6.930;2023-04-06T11:55:28;14.70;84.70
51914;DHT22;37940;53.002;6.930;2023-04-06T11:57:54;14.50;82.90
51914;DHT22;37940;53.002;6.930;2023-04-06T12:00:21;14.50;85.10
51914;DHT22;37940;53.002;6.930;2023-04-06T12:02:48;14.50;85.90
51914;DHT22;37940;53.002;6.930;2023-04-06T12:05:14;14.60;85.20
51914;DHT22;37940;53.002;6.930;2023-04-06T12:07:40;14.60;85.70
51914;DHT22;37940;53.002;6.930;2023-04-06T12:10:06;14.70;84.40
51914;DHT22;37940;53.002;6.930;2023-04-06T12:12:32;14.70;82.80
51914;DHT22;37940;53.002;6.930;2023-04-06T12:14:58;14.70;83.40
51914;DHT22;37940;53.002;6.930;2023-04-06T12:17:24;14.70;83.20
51914;DHT22;37940;53.002;6.930;2023-04-06T12:19:50;14.60;83.20
51914;DHT22;37940;53.002;6.930;2023-04-06T12:22:18;14.50;84.70
51914;DHT22;37940;53.002;6.930;2023-04-06T12:24:44;14.40;84.40
51914;DHT22;37940;53.002;6.930;2023-04-06T12:27:10;14.50;86.80
51914;DHT22;37940;53.002;6.930;2023-04-06T12:29:37;14.50;86.90
51914;DHT22;37940;53.002;6.930;2023-04-06T12:32:03;14.50;86.30
51914;DHT22;37940;53.002;6.930;2023-04-06T12:34:30;14.30;85.90
51914;DHT22;37940;53.002;6.930;2023-04-06T12:36:56;14.40;85.30
51914;DHT22;37940;53.002;6.930;2023-04-06T12:39:23;14.40;89.60
51914;DHT22;37940;53.002;6.930;2023-04-06T12:41:49;14.40;86.40
51914;DHT22;37940;53.002;6.930;2023-04-06T12:44:15;14.40;86.40
51914;DHT22;37940;53.002;6.930;2023-04-06T12:46:41;14.20;84.40
51914;DHT22;37940;53.002;6.930;2023-04-06T12:49:08;14.10;86.40
51914;DHT22;37940;53.002;6.930;2023-04-06T12:51:34;14.10;84.70
51914;DHT22;37940;53.002;6.930;2023-04-06T12:53:59;14.00;86.20
51914;DHT22;37940;53.002;6.930;2023-04-06T12:56:26;14.00;87.30
51914;DHT22;37940;53.002;6.930;2023-04-06T12:58:52;14.00;87.80
51914;DHT22;37940;53.002;6.930;2023-04-06T13:01:18;13.90;86.40
51914;DHT22;37940;53.002;6.930;2023-04-06T13:03:44;13.90;85.80
51914;DHT22;37940;53.002;6.930;2023-04-06T13:06:10;13.80;84.70
51914;DHT22;37940;53.002;6.930;2023-04-06T13:08:37;13.70;86.60
51914;DHT22;37940;53.002;6.930;2023-04-06T13:11:04;13.80;87.80
51914;DHT22;37940;53.002;6.930;2023-04-06T13:13:30;13.70;85.70
51914;DHT22;37940;53.002;6.930;2023-04-06T13:16:02;13.70;87.00
51914;DHT22;37940;53.002;6.930;2023-04-06T13:18:29;13.70;86.80
51914;DHT22;37940;53.002;6.930;2023-04-06T13:20:56;13.70;88.70
51914;DHT22;37940;53.002;6.930;2023-04-06T13:23:23;13.80;88.30
51914;DHT22;37940;53.002;6.930;2023-04-06T13:25:57;13.80;83.90
51914;DHT22;37940;53.002;6.930;2023-04-06T13:28:24;13.80;86.10
51914;DHT22;37940;53.002;6.930;2023-04-06T13:30:49;13.70;84.80
51914;DHT22;37940;53.002;6.930;2023-04-06T13:33:15;13.80;87.50
51914;DHT22;37940;53.002;6.930;2023-04-06T13:35:44;13.70;85.90
51914;DHT22;37940;53.002;6.930;2023-04-06T13:38:11;13.70;86.60
51914;DHT22;37940;53.002;6.930;2023-04-06T13:40:39;13.70;86.90
51914;DHT22;37940;53.002;6.930;2023-04-06T13:43:06;13.60;84.60
51914;DHT22;37940;53.002;6.930;2023-04-06T13:45:31;13.70;86.30
51914;DHT22;37940;53.002;6.930;2023-04-06T13:47:57;13.70;85.80
51914;DHT22;37940;53.002;6.930;2023-04-06T13:50:27;13.40;85.70
51914;DHT22;37940;53.002;6.930;2023-04-06T13:52:53;13.70;86.20
51914;DHT22;37940;53.002;6.930;2023-04-06T13:55:23;13.70;85.10
51914;DHT22;37940;53.002;6.930;2023-04-06T13:57:54;13.70;83.40
51914;DHT22;37940;53.002;6.930;2023-04-06T14:00:20;13.60;85.60
51914;DHT22;37940;53.002;6.930;2023-04-06T14:02:46;13.60;83.30
51914;DHT22;37940;53.002;6.930;2023-04-06T14:05:12;13.50;83.00
51914;DHT22;37940;53.002;6.930;2023-04-06T14:07:38;13.50;84.30
51914;DHT22;37940;53.002;6.930;2023-04-06T14:10:04;13.50;85.70
51914;DHT22;37940;53.002;6.930;2023-04-06T14:12:30;13.50;85.00
51914;DHT22;37940;53.002;6.930;2023-04-06T14:14:57;13.40;83.90
51914;DHT22;37940;53.002;6.930;2023-04-06T14:17:22;13.40;85.10
51914;DHT22;37940;53.002;6.930;2023-04-06T14:19:48;13.40;85.50
51914;DHT22;37940;53.002;6.930;2023-04-06T14:22:14;13.40;87.20
51914;DHT22;37940;53.002;6.930;2023-04-06T14:24:40;13.40;85.60
51914;DHT22;37940;53.002;6.930;2023-04-06T14:27:06;13.30;85.90
51914;DHT22;37940;53.002;6.930;2023-04-06T14:29:32;13.30;87.10
51914;DHT22;37940;53.002;6.930;2023-04-06T14:31:57;13.30;84.70
51914;DHT22;37940;53.002;6.930;2023-04-06T14:34:26;13.30;85.50
51914;DHT22;37940;53.002;6.930;2023-04-06T14:36:52;13.30;86.30
51914;DHT22;37940;53.002;6.930;2023-04-06T14:39:18;13.20;86.40
51914;DHT22;37940;53.002;6.930;2023-04-06T14:41:44;13.20;86.10
51914;DHT22;37940;53.002;6.930;2023-04-06T14:44:10;13.20;86.70
51914;DHT22;37940;53.002;6.930;2023-04-06T14:46:37;13.10;87.10
51914;DHT22;37940;53.002;6.930;2023-04-06T14:49:03;13.00;90.30
51914;DHT22;37940;53.002;6.930;2023-04-06T14:51:29;13.00;91.20
51914;DHT22;37940;53.002;6.930;2023-04-06T14:53:55;13.00;91.50
51914;DHT22;37940;53.002;6.930;2023-04-06T14:56:24;12.90;91.90
51914;DHT22;37940;53.002;6.930;2023-04-06T14:58:50;12.90;92.90
51914;DHT22;37940;53.002;6.930;2023-04-06T15:01:18;12.80;92.80
51914;DHT22;37940;53.002;6.930;2023-04-06T15:03:45;12.80;93.00
51914;DHT22;37940;53.002;6.930;2023-04-06T15:06:13;12.80;93.70
51914;DHT22;37940;53.002;6.930;2023-04-06T15:08:41;12.70;93.90
51914;DHT22;37940;53.002;6.930;2023-04-06T15:11:07;12.60;94.00
51914;DHT22;37940;53.002;6.930;2023-04-06T15:13:33;12.60;93.80
51914;DHT22;37940;53.002;6.930;2023-04-06T15:15:59;12.50;94.50
51914;DHT22;37940;53.002;6.930;2023-04-06T15:18:24;12.40;95.20
51914;DHT22;37940;53.002;6.930;2023-04-06T15:20:51;12.30;94.90
51914;DHT22;37940;53.002;6.930;2023-04-06T15:23:17;12.30;95.50
51914;DHT22;37940;53.002;6.930;2023-04-06T15:25:43;12.20;95.50
51914;DHT22;37940;53.002;6.930;2023-04-06T15:28:09;12.10;96.10
51914;DHT22;37940;53.002;6.930;2023-04-06T15:30:42;12.10;96.40
51914;DHT22;37940;53.002;6.930;2023-04-06T15:33:08;12.00;96.10
51914;DHT22;37940;53.002;6.930;2023-04-06T15:35:34;12.00;97.10
51914;DHT22;37940;53.002;6.930;2023-04-06T15:38:06;12.00;97.60
51914;DHT22;37940;53.002;6.930;2023-04-06T15:40:32;11.80;97.20